sensor_id;sensor_type;location;lat;lon;timestamp;temperature;humidity
17092;DHT22;8661;45.700;4.880;2024-03-22T00:00:37;13.30;99.90
17092;DHT22;8661;45.700;4.880;2024-03-22T00:03:03;13.30;99.90
17092;DHT22;8661;45.700;4.880;2024-03-22T00:05:30;13.30;99.90
17092;DHT22;8661;45.700;4.880;2024-03-22T00:07:56;13.20;99.90
17092;DHT22;8661;45.700;4.880;2024-03-22T00:10:23;13.30;99.90
17092;DHT22;8661;45.700;4.880;2024-03-22T00:12:49;13.20;99.90
17092;DHT22;8661;45.700;4.880;2024-03-22T00:15:16;13.20;99.90
17092;DHT22;8661;45.700;4.880;2024-03-22T00:17:45;13.20;99.90
17092;DHT22;8661;45.700;4.880;2024-03-22T00:20:12;13.20;99.90
17092;DHT22;8661;45.700;4.880;2024-03-22T00:22:38;13.20;99.90
17092;DHT22;8661;45.700;4.880;2024-03-22T00:25:05;13.20;99.90
17092;DHT22;8661;45.700;4.880;2024-03-22T00:27:31;13.20;99.90
17092;DHT22;8661;45.700;4.880;2024-03-22T00:29:58;13.20;99.90
17092;DHT22;8661;45.700;4.880;2024-03-22T00:32:24;13.20;99.90
17092;DHT22;8661;45.700;4.880;2024-03-22T00:34:52;13.10;99.90
17092;DHT22;8661;45.700;4.880;2024-03-22T00:37:18;13.10;99.90
17092;DHT22;8661;45.700;4.880;2024-03-22T00:39:45;13.20;99.90
17092;DHT22;8661;45.700;4.880;2024-03-22T00:42:11;13.20;99.90
17092;DHT22;8661;45.700;4.880;2024-03-22T00:44:38;13.20;99.90
17092;DHT22;8661;45.700;4.880;2024-03-22T00:47:05;13.20;99.90
17092;DHT22;8661;45.700;4.880;2024-03-22T00:49:32;13.20;99.90
17092;DHT22;8661;45.700;4.880;2024-03-22T00:51:59;13.20;99.90
17092;DHT22;8661;45.700;4.880;2024-03-22T00:54:26;13.20;99.90
17092;DHT22;8661;45.700;4.880;2024-03-22T00:56:52;13.20;99.90
17092;DHT22;8661;45.700;4.880;2024-03-22T00:59:19;13.20;99.90
17092;DHT22;8661;45.700;4.880;2024-03-22T01:01:45;13.20;99.90
17092;DHT22;8661;45.700;4.880;2024-03-22T01:04:12;13.20;99.90
17092;DHT22;8661;45.700;4.880;2024-03-22T01:06:38;13.20;99.90
17092;DHT22;8661;45.700;4.880;2024-03-22T01:09:06;13.20;99.90
17092;DHT22;8661;45.700;4.880;2024-03-22T01:11:33;13.30;99.90
17092;DHT22;8661;45.700;4.880;2024-03-22T01:14:00;13.20;99.90
17092;DHT22;8661;45.700;4.880;2024-03-22T01:16:26;13.20;99.90
17092;DHT22;8661;45.700;4.880;2024-03-22T01:18:53;13.20;99.90
17092;DHT22;8661;45.700;4.880;2024-03-22T01:21:18;13.20;99.90
17092;DHT22;8661;45.700;4.880;2024-03-22T01:23:50;13.20;99.90
17092;DHT22;8661;45.700;4.880;2024-03-22T01:26:18;13.10;99.90
17092;DHT22;8661;45.700;4.880;2024-03-22T01:28:45;13.10;99.90
17092;DHT22;8661;45.700;4.880;2024-03-22T01:31:11;13.10;99.90
17092;DHT22;8661;45.700;4.880;2024-03-22T01:33:38;13.10;99.90
17092;DHT22;8661;45.700;4.880;2024-03-22T01:36:05;13.20;99.90
17092;DHT22;8661;45.700;4.880;2024-03-22T01:38:32;13.10;99.90
17092;DHT22;8661;45.700;4.880;2024-03-22T01:40:58;13.10;99.90
17092;DHT22;8661;45.700;4.880;2024-03-22T01:43:26;13.10;99.90
17092;DHT22;8661;45.700;4.880;2024-03-22T01:45:52;13.10;99.90
17092;DHT22;8661;45.700;4.880;2024-03-22T01:48:19;13.10;99.90
17092;DHT22;8661;45.700;4.880;2024-03-22T01:50:45;13.10;99.90
17092;DHT22;8661;45.700;4.880;2024-03-22T01:53:12;13.10;99.90
17092;DHT22;8661;45.700;4.880;2024-03-22T01:55:38;13.10;99.90
17092;DHT22;8661;45.700;4.880;2024-03-22T01:58:06;13.00;99.90
17092;DHT22;8661;45.700;4.880;2024-03-22T02:00:34;13.00;99.90
17092;DHT22;8661;45.700;4.880;2024-03-22T02:03:01;13.00;99.90
17092;DHT22;8661;45.700;4.880;2024-03-22T02:05:27;13.00;99.90
17092;DHT22;8661;45.700;4.880;2024-03-22T02:07:54;12.90;99.90
17092;DHT22;8661;45.700;4.880;2024-03-22T02:10:20;12.90;99.90
17092;DHT22;8661;45.700;4.880;2024-03-22T02:12:47;12.90;99.90
17092;DHT22;8661;45.700;4.880;2024-03-22T02:15:13;12.90;99.90
17092;DHT22;8661;45.700;4.880;2024-03-22T02:17:41;12.90;99.90
17092;DHT22;8661;45.700;4.880;2024-03-22T02:20:08;12.90;99.90
17092;DHT22;8661;45.700;4.880;2024-03-22T02:22:35;12.90;99.90
17092;DHT22;8661;45.700;4.880;2024-03-22T02:25:03;12.80;99.90
17092;DHT22;8661;45.700;4.880;2024-03-22T02:27:30;12.80;99.90
17092;DHT22;8661;45.700;4.880;2024-03-22T02:29:56;12.80;99.90
17092;DHT22;8661;45.700;4.880;2024-03-22T02:32:23;12.80;99.90
17092;DHT22;8661;45.700;4.880;2024-03-22T02:34:49;12.80;99.90
17092;DHT22;8661;45.700;4.880;2024-03-22T02:37:16;12.90;99.90
17092;DHT22;8661;45.700;4.880;2024-03-22T02:39:42;12.90;99.90
17092;DHT22;8661;45.700;4.880;2024-03-22T02:42:10;12.80;99.90
17092;DHT22;8661;45.700;4.880;2024-03-22T02:44:36;12.90;99.90
17092;DHT22;8661;45.700;4.880;2024-03-22T02:47:08;12.90;99.90
17092;DHT22;8661;45.700;4.880;2024-03-22T02:49:34;12.90;99.90
17092;DHT22;8661;45.700;4.880;2024-03-22T02:52:01;12.90;99.90
17092;DHT22;8661;45.700;4.880;2024-03-22T02:54:27;12.80;99.90
17092;DHT22;8661;45.700;4.880;2024-03-22T02:56:54;12.80;99.90
17092;DHT22;8661;45.700;4.880;2024-03-22T02:59:21;12.80;99.90
17092;DHT22;8661;45.700;4.880;2024-03-22T03:01:48;12.80;99.90
17092;DHT22;8661;45.700;4.880;2024-03-22T03:04:14;12.80;99.90
17092;DHT22;8661;45.700;4.880;2024-03-22T03:06:41;12.80;99.90
17092;DHT22;8661;45.700;4.880;2024-03-22T03:09:07;12.80;99.90
17092;DHT22;8661;45.700;4.880;2024-03-22T03:11:37;12.80;99.90
17092;DHT22;8661;45.700;4.880;2024-03-22T03:14:03;12.80;99.90
17092;DHT22;8661;45.700;4.880;2024-03-22T03:16:32;12.80;99.90
17092;DHT22;8661;45.700;4.880;2024-03-22T03:18:58;12.80;99.90
17092;DHT22;8661;45.700;4.880;2024-03-22T03:21:25;12.80;99.90
17092;DHT22;8661;45.700;4.880;2024-03-22T03:23:51;12.80;99.90
17092;DHT22;8661;45.700;4.880;2024-03-22T03:26:18;12.80;99.90
17092;DHT22;8661;45.700;4.880;2024-03-22T03:28:44;12.80;99.90
17092;DHT22;8661;45.700;4.880;2024-03-22T03:31:10;12.80;99.90
17092;DHT22;8661;45.700;4.880;2024-03-22T03:33:38;12.80;99.90
17092;DHT22;8661;45.700;4.880;2024-03-22T03:36:05;12.70;99.90
17092;DHT22;8661;45.700;4.880;2024-03-22T03:38:31;12.80;99.90
17092;DHT22;8661;45.700;4.880;2024-03-22T03:40:58;12.80;99.90
17092;DHT22;8661;45.700;4.880;2024-03-22T03:43:24;12.80;99.90
17092;DHT22;8661;45.700;4.880;2024-03-22T03:45:51;12.80;99.90
17092;DHT22;8661;45.700;4.880;2024-03-22T03:48:17;12.70;99.90
17092;DHT22;8661;45.700;4.880;2024-03-22T03:50:52;12.80;99.90
17092;DHT22;8661;45.700;4.880;2024-03-22T03:53:18;12.70;99.90
17092;DHT22;8661;45.700;4.880;2024-03-22T03:55:46;12.80;99.90
17092;DHT22;8661;45.700;4.880;2024-03-22T03:58:12;12.70;99.90
17092;DHT22;8661;45.700;4.880;2024-03-22T04:00:39;12.70;99.90
17092;DHT22;8661;45.700;4.880;2024-03-22T04:03:05;12.70;99.90
17092;DHT22;8661;45.700;4.880;2024-03-22T04:05:32;12.70;99.90
17092;DHT22;8661;45.700;4.880;2024-03-22T04:07:59;12.70;99.90
17092;DHT22;8661;45.700;4.880;2024-03-22T04:10:26;12.80;99.90
17092;DHT22;8661;45.700;4.880;2024-03-22T04:12:52;12.70;99.90
17092;DHT22;8661;45.700;4.880;2024-03-22T04:15:19;12.70;99.90
17092;DHT22;8661;45.700;4.880;2024-03-22T04:17:45;12.70;99.90
17092;DHT22;8661;45.700;4.880;2024-03-22T04:20:12;12.70;99.90
17092;DHT22;8661;45.700;4.880;2024-03-22T04:22:38;12.70;99.90
17092;DHT22;8661;45.700;4.880;2024-03-22T04:25:07;12.60;99.90
17092;DHT22;8661;45.700;4.880;2024-03-22T04:27:36;12.50;99.90
17092;DHT22;8661;45.700;4.880;2024-03-22T04:30:03;12.50;99.90
17092;DHT22;8661;45.700;4.880;2024-03-22T04:32:29;12.50;99.90
17092;DHT22;8661;45.700;4.880;2024-03-22T04:34:56;12.50;99.90
17092;DHT22;8661;45.700;4.880;2024-03-22T04:37:22;12.50;99.90
17092;DHT22;8661;45.700;4.880;2024-03-22T04:39:49;12.40;99.90
17092;DHT22;8661;45.700;4.880;2024-03-22T04:42:18;12.30;99.90
17092;DHT22;8661;45.700;4.880;2024-03-22T04:44:44;12.30;99.90
17092;DHT22;8661;45.700;4.880;2024-03-22T04:47:11;12.30;99.90
17092;DHT22;8661;45.700;4.880;2024-03-22T04:49:38;12.20;99.90
17092;DHT22;8661;45.700;4.880;2024-03-22T04:52:04;12.20;99.90
17092;DHT22;8661;45.700;4.880;2024-03-22T04:54:31;12.20;99.90
17092;DHT22;8661;45.700;4.880;2024-03-22T04:56:57;12.20;99.90
17092;DHT22;8661;45.700;4.880;2024-03-22T04:59:26;12.20;99.90
17092;DHT22;8661;45.700;4.880;2024-03-22T05:01:52;12.10;99.90
17092;DHT22;8661;45.700;4.880;2024-03-22T05:04:19;12.10;99.90
17092;DHT22;8661;45.700;4.880;2024-03-22T05:06:45;12.10;99.90
17092;DHT22;8661;45.700;4.880;2024-03-22T05:09:12;12.10;99.90
17092;DHT22;8661;45.700;4.880;2024-03-22T05:11:38;12.10;99.90
17092;DHT22;8661;45.700;4.880;2024-03-22T05:14:05;12.10;99.90
17092;DHT22;8661;45.700;4.880;2024-03-22T05:16:32;12.00;99.90
17092;DHT22;8661;45.700;4.880;2024-03-22T05:18:59;12.00;99.90
17092;DHT22;8661;45.700;4.880;2024-03-22T05:21:25;12.00;99.90
17092;DHT22;8661;45.700;4.880;2024-03-22T05:23:52;12.00;99.90
17092;DHT22;8661;45.700;4.880;2024-03-22T05:26:18;12.00;99.90
17092;DHT22;8661;45.700;4.880;2024-03-22T05:28:46;11.90;99.90
17092;DHT22;8661;45.700;4.880;2024-03-22T05:31:12;11.90;99.90
17092;DHT22;8661;45.700;4.880;2024-03-22T05:33:40;11.90;99.90
17092;DHT22;8661;45.700;4.880;2024-03-22T05:36:07;12.00;99.90
17092;DHT22;8661;45.700;4.880;2024-03-22T05:38:34;12.00;99.90
17092;DHT22;8661;45.700;4.880;2024-03-22T05:41:03;12.10;99.90
17092;DHT22;8661;45.700;4.880;2024-03-22T05:43:30;12.10;99.90
17092;DHT22;8661;45.700;4.880;2024-03-22T05:45:56;12.00;99.90
17092;DHT22;8661;45.700;4.880;2024-03-22T05:48:26;12.10;99.90
17092;DHT22;8661;45.700;4.880;2024-03-22T05:53:53;12.10;99.90
17092;DHT22;8661;45.700;4.880;2024-03-22T05:56:19;12.10;99.90
17092;DHT22;8661;45.700;4.880;2024-03-22T05:58:47;12.10;99.90
17092;DHT22;8661;45.700;4.880;2024-03-22T06:01:12;12.20;99.90
17092;DHT22;8661;45.700;4.880;2024-03-22T06:03:40;12.20;99.90
17092;DHT22;8661;45.700;4.880;2024-03-22T06:06:06;12.20;99.90
17092;DHT22;8661;45.700;4.880;2024-03-22T06:08:33;12.30;99.90
17092;DHT22;8661;45.700;4.880;2024-03-22T06:11:01;12.40;99.90
17092;DHT22;8661;45.700;4.880;2024-03-22T06:13:28;12.40;99.90
17092;DHT22;8661;45.700;4.880;2024-03-22T06:15:56;12.40;99.90
17092;DHT22;8661;45.700;4.880;2024-03-22T06:18:23;12.40;99.90
17092;DHT22;8661;45.700;4.880;2024-03-22T06:20:48;12.50;99.90
17092;DHT22;8661;45.700;4.880;2024-03-22T06:23:20;12.70;99.90
17092;DHT22;8661;45.700;4.880;2024-03-22T06:25:52;12.90;99.90
17092;DHT22;8661;45.700;4.880;2024-03-22T06:28:22;13.20;99.90
17092;DHT22;8661;45.700;4.880;2024-03-22T06:30:49;13.70;99.90
17092;DHT22;8661;45.700;4.880;2024-03-22T06:33:27;14.10;99.90
17092;DHT22;8661;45.700;4.880;2024-03-22T06:35:55;14.50;99.90
17092;DHT22;8661;45.700;4.880;2024-03-22T06:38:22;14.70;99.90
17092;DHT22;8661;45.700;4.880;2024-03-22T06:40:48;14.90;99.90
17092;DHT22;8661;45.700;4.880;2024-03-22T06:43:15;14.80;99.90
17092;DHT22;8661;45.700;4.880;2024-03-22T06:45:43;14.90;99.90
17092;DHT22;8661;45.700;4.880;2024-03-22T06:48:10;14.90;99.90
17092;DHT22;8661;45.700;4.880;2024-03-22T06:50:36;15.10;99.90
17092;DHT22;8661;45.700;4.880;2024-03-22T06:53:03;15.30;99.90
17092;DHT22;8661;45.700;4.880;2024-03-22T06:55:29;15.60;99.90
17092;DHT22;8661;45.700;4.880;2024-03-22T06:57:56;15.90;99.90
17092;DHT22;8661;45.700;4.880;2024-03-22T07:00:24;16.10;99.90
17092;DHT22;8661;45.700;4.880;2024-03-22T07:02:53;16.60;99.90
17092;DHT22;8661;45.700;4.880;2024-03-22T07:05:21;17.20;99.90
17092;DHT22;8661;45.700;4.880;2024-03-22T07:07:48;17.50;99.90
17092;DHT22;8661;45.700;4.880;2024-03-22T07:10:21;17.80;99.90
17092;DHT22;8661;45.700;4.880;2024-03-22T07:12:53;18.10;99.90
17092;DHT22;8661;45.700;4.880;2024-03-22T07:15:20;18.30;99.90
17092;DHT22;8661;45.700;4.880;2024-03-22T07:17:47;18.60;99.90
17092;DHT22;8661;45.700;4.880;2024-03-22T07:20:15;18.90;99.90
17092;DHT22;8661;45.700;4.880;2024-03-22T07:22:42;19.30;99.90
17092;DHT22;8661;45.700;4.880;2024-03-22T07:25:08;19.60;99.90
17092;DHT22;8661;45.700;4.880;2024-03-22T07:27:36;19.80;99.90
17092;DHT22;8661;45.700;4.880;2024-03-22T07:30:02;20.40;98.70
17092;DHT22;8661;45.700;4.880;2024-03-22T07:32:30;20.50;97.60
17092;DHT22;8661;45.700;4.880;2024-03-22T07:34:57;20.70;96.50
17092;DHT22;8661;45.700;4.880;2024-03-22T07:37:25;21.00;95.20
17092;DHT22;8661;45.700;4.880;2024-03-22T07:39:51;21.50;94.10
17092;DHT22;8661;45.700;4.880;2024-03-22T07:42:18;22.10;92.80
17092;DHT22;8661;45.700;4.880;2024-03-22T07:44:44;22.50;94.70
17092;DHT22;8661;45.700;4.880;2024-03-22T07:47:11;23.20;92.30
17092;DHT22;8661;45.700;4.880;2024-03-22T07:52:05;23.90;99.90
17092;DHT22;8661;45.700;4.880;2024-03-22T07:54:32;24.30;99.90
17092;DHT22;8661;45.700;4.880;2024-03-22T07:56:59;24.40;90.20
17092;DHT22;8661;45.700;4.880;2024-03-22T07:59:25;24.40;82.30
17092;DHT22;8661;45.700;4.880;2024-03-22T08:01:52;24.40;81.70
17092;DHT22;8661;45.700;4.880;2024-03-22T08:04:18;24.50;81.50
17092;DHT22;8661;45.700;4.880;2024-03-22T08:06:46;24.80;80.50
17092;DHT22;8661;45.700;4.880;2024-03-22T08:09:12;24.80;79.30
17092;DHT22;8661;45.700;4.880;2024-03-22T08:11:40;24.50;80.10
17092;DHT22;8661;45.700;4.880;2024-03-22T08:14:06;24.10;81.10
17092;DHT22;8661;45.700;4.880;2024-03-22T08:16:33;24.00;81.10
17092;DHT22;8661;45.700;4.880;2024-03-22T08:18:59;24.00;79.60
17092;DHT22;8661;45.700;4.880;2024-03-22T08:21:29;24.00;79.10
17092;DHT22;8661;45.700;4.880;2024-03-22T08:23:55;24.30;78.60
17092;DHT22;8661;45.700;4.880;2024-03-22T08:26:21;24.60;78.20
17092;DHT22;8661;45.700;4.880;2024-03-22T08:28:51;25.30;76.40
17092;DHT22;8661;45.700;4.880;2024-03-22T08:31:18;25.50;75.20
17092;DHT22;8661;45.700;4.880;2024-03-22T08:33:47;25.60;74.80
17092;DHT22;8661;45.700;4.880;2024-03-22T08:36:14;25.50;74.00
17092;DHT22;8661;45.700;4.880;2024-03-22T08:38:40;25.50;74.10
17092;DHT22;8661;45.700;4.880;2024-03-22T08:41:07;25.70;73.60
17092;DHT22;8661;45.700;4.880;2024-03-22T08:43:33;25.80;73.20
17092;DHT22;8661;45.700;4.880;2024-03-22T08:46:01;25.90;73.20
17092;DHT22;8661;45.700;4.880;2024-03-22T08:48:29;26.20;72.10
17092;DHT22;8661;45.700;4.880;2024-03-22T08:50:56;25.90;72.50
17092;DHT22;8661;45.700;4.880;2024-03-22T08:53:22;25.60;73.40
17092;DHT22;8661;45.700;4.880;2024-03-22T08:55:50;25.40;73.70
17092;DHT22;8661;45.700;4.880;2024-03-22T08:58:16;25.40;73.10
17092;DHT22;8661;45.700;4.880;2024-03-22T09:00:44;25.50;73.10
17092;DHT22;8661;45.700;4.880;2024-03-22T09:03:11;25.70;73.10
17092;DHT22;8661;45.700;4.880;2024-03-22T09:05:39;26.10;72.10
17092;DHT22;8661;45.700;4.880;2024-03-22T09:08:05;26.40;71.90
17092;DHT22;8661;45.700;4.880;2024-03-22T09:10:32;26.80;70.30
17092;DHT22;8661;45.700;4.880;2024-03-22T09:12:59;27.30;69.10
17092;DHT22;8661;45.700;4.880;2024-03-22T09:15:25;28.00;67.80
17092;DHT22;8661;45.700;4.880;2024-03-22T09:17:52;28.10;67.60
17092;DHT22;8661;45.700;4.880;2024-03-22T09:20:20;28.60;65.50
17092;DHT22;8661;45.700;4.880;2024-03-22T09:22:50;28.70;64.70
17092;DHT22;8661;45.700;4.880;2024-03-22T09:25:16;29.30;64.20
17092;DHT22;8661;45.700;4.880;2024-03-22T09:27:49;29.20;63.70
17092;DHT22;8661;45.700;4.880;2024-03-22T09:30:23;29.30;62.00
17092;DHT22;8661;45.700;4.880;2024-03-22T09:32:49;29.60;61.80
17092;DHT22;8661;45.700;4.880;2024-03-22T09:35:19;29.90;61.30
17092;DHT22;8661;45.700;4.880;2024-03-22T09:37:45;30.00;60.20
17092;DHT22;8661;45.700;4.880;2024-03-22T09:40:12;30.20;60.20
17092;DHT22;8661;45.700;4.880;2024-03-22T09:42:41;30.60;59.50
17092;DHT22;8661;45.700;4.880;2024-03-22T09:45:09;31.40;58.30
17092;DHT22;8661;45.700;4.880;2024-03-22T09:47:36;31.40;58.80
17092;DHT22;8661;45.700;4.880;2024-03-22T09:50:06;31.50;73.50
17092;DHT22;8661;45.700;4.880;2024-03-22T09:52:35;31.80;57.30
17092;DHT22;8661;45.700;4.880;2024-03-22T09:55:05;31.80;57.40
17092;DHT22;8661;45.700;4.880;2024-03-22T09:57:36;31.80;57.90
17092;DHT22;8661;45.700;4.880;2024-03-22T10:00:07;32.20;57.70
17092;DHT22;8661;45.700;4.880;2024-03-22T10:02:33;32.60;57.30
17092;DHT22;8661;45.700;4.880;2024-03-22T10:05:01;32.80;56.20
17092;DHT22;8661;45.700;4.880;2024-03-22T10:07:27;32.90;55.80
17092;DHT22;8661;45.700;4.880;2024-03-22T10:09:59;33.30;56.40
17092;DHT22;8661;45.700;4.880;2024-03-22T10:12:25;33.70;55.70
17092;DHT22;8661;45.700;4.880;2024-03-22T10:14:52;34.00;55.40
17092;DHT22;8661;45.700;4.880;2024-03-22T10:17:19;33.80;55.20
17092;DHT22;8661;45.700;4.880;2024-03-22T10:19:48;33.10;55.80
17092;DHT22;8661;45.700;4.880;2024-03-22T10:22:16;32.70;56.20
17092;DHT22;8661;45.700;4.880;2024-03-22T10:24:43;32.60;55.70
17092;DHT22;8661;45.700;4.880;2024-03-22T10:27:10;32.30;56.40
17092;DHT22;8661;45.700;4.880;2024-03-22T10:29:37;32.60;56.90
17092;DHT22;8661;45.700;4.880;2024-03-22T10:32:04;32.30;56.10
17092;DHT22;8661;45.700;4.880;2024-03-22T10:34:33;31.90;56.50
17092;DHT22;8661;45.700;4.880;2024-03-22T10:37:00;31.90;56.60
17092;DHT22;8661;45.700;4.880;2024-03-22T10:39:27;32.00;56.40
17092;DHT22;8661;45.700;4.880;2024-03-22T10:41:54;32.30;57.20
17092;DHT22;8661;45.700;4.880;2024-03-22T10:44:22;32.70;56.20
17092;DHT22;8661;45.700;4.880;2024-03-22T10:46:49;32.40;55.40
17092;DHT22;8661;45.700;4.880;2024-03-22T10:49:18;32.30;56.20
17092;DHT22;8661;45.700;4.880;2024-03-22T10:51:48;32.20;56.40
17092;DHT22;8661;45.700;4.880;2024-03-22T10:54:20;32.70;55.60
17092;DHT22;8661;45.700;4.880;2024-03-22T10:56:46;32.70;54.40
17092;DHT22;8661;45.700;4.880;2024-03-22T10:59:14;32.10;54.60
17092;DHT22;8661;45.700;4.880;2024-03-22T11:01:45;32.00;55.10
17092;DHT22;8661;45.700;4.880;2024-03-22T11:04:12;32.50;53.90
17092;DHT22;8661;45.700;4.880;2024-03-22T11:06:38;32.30;54.00
17092;DHT22;8661;45.700;4.880;2024-03-22T11:09:05;32.80;54.40
17092;DHT22;8661;45.700;4.880;2024-03-22T11:11:32;32.60;54.10
17092;DHT22;8661;45.700;4.880;2024-03-22T11:14:02;32.80;54.90
17092;DHT22;8661;45.700;4.880;2024-03-22T11:16:30;33.20;54.30
17092;DHT22;8661;45.700;4.880;2024-03-22T11:18:58;33.90;54.00
17092;DHT22;8661;45.700;4.880;2024-03-22T11:21:24;33.50;52.60
17092;DHT22;8661;45.700;4.880;2024-03-22T11:23:51;33.20;53.10
17092;DHT22;8661;45.700;4.880;2024-03-22T11:26:17;33.50;53.50
17092;DHT22;8661;45.700;4.880;2024-03-22T11:28:44;34.00;52.70
17092;DHT22;8661;45.700;4.880;2024-03-22T11:31:10;34.30;52.30
17092;DHT22;8661;45.700;4.880;2024-03-22T11:33:37;34.40;51.90
17092;DHT22;8661;45.700;4.880;2024-03-22T11:36:06;34.60;51.90
17092;DHT22;8661;45.700;4.880;2024-03-22T11:38:33;34.70;51.20
17092;DHT22;8661;45.700;4.880;2024-03-22T11:41:00;34.70;51.00
17092;DHT22;8661;45.700;4.880;2024-03-22T11:43:29;34.80;50.90
17092;DHT22;8661;45.700;4.880;2024-03-22T11:45:55;35.10;51.60
17092;DHT22;8661;45.700;4.880;2024-03-22T11:48:22;34.80;51.10
17092;DHT22;8661;45.700;4.880;2024-03-22T11:50:49;34.70;51.20
17092;DHT22;8661;45.700;4.880;2024-03-22T11:53:17;34.80;51.50
17092;DHT22;8661;45.700;4.880;2024-03-22T11:55:43;35.00;51.30
17092;DHT22;8661;45.700;4.880;2024-03-22T11:58:10;35.30;51.70
17092;DHT22;8661;45.700;4.880;2024-03-22T12:00:36;35.10;50.30
17092;DHT22;8661;45.700;4.880;2024-03-22T12:03:04;35.10;50.50
17092;DHT22;8661;45.700;4.880;2024-03-22T12:05:31;34.70;51.50
17092;DHT22;8661;45.700;4.880;2024-03-22T12:07:58;34.80;51.40
17092;DHT22;8661;45.700;4.880;2024-03-22T12:10:26;34.70;50.60
17092;DHT22;8661;45.700;4.880;2024-03-22T12:12:53;34.70;49.70
17092;DHT22;8661;45.700;4.880;2024-03-22T12:15:19;34.30;49.10
17092;DHT22;8661;45.700;4.880;2024-03-22T12:17:47;34.00;48.70
17092;DHT22;8661;45.700;4.880;2024-03-22T12:20:13;33.80;48.90
17092;DHT22;8661;45.700;4.880;2024-03-22T12:22:41;34.00;49.60
17092;DHT22;8661;45.700;4.880;2024-03-22T12:25:08;34.20;48.40
17092;DHT22;8661;45.700;4.880;2024-03-22T12:27:36;33.80;48.10
17092;DHT22;8661;45.700;4.880;2024-03-22T12:30:03;33.80;48.20
17092;DHT22;8661;45.700;4.880;2024-03-22T12:32:31;34.00;48.10
17092;DHT22;8661;45.700;4.880;2024-03-22T12:34:57;33.60;48.20
17092;DHT22;8661;45.700;4.880;2024-03-22T12:37:24;33.60;48.00
17092;DHT22;8661;45.700;4.880;2024-03-22T12:39:50;33.80;47.30
17092;DHT22;8661;45.700;4.880;2024-03-22T12:42:17;34.40;46.70
17092;DHT22;8661;45.700;4.880;2024-03-22T12:44:45;34.10;46.50
17092;DHT22;8661;45.700;4.880;2024-03-22T12:47:12;34.20;47.10
17092;DHT22;8661;45.700;4.880;2024-03-22T12:49:37;33.90;46.70
17092;DHT22;8661;45.700;4.880;2024-03-22T12:52:05;33.70;46.70
17092;DHT22;8661;45.700;4.880;2024-03-22T12:54:31;33.50;46.40
17092;DHT22;8661;45.700;4.880;2024-03-22T12:56:58;33.20;47.00
17092;DHT22;8661;45.700;4.880;2024-03-22T12:59:24;33.10;48.00
17092;DHT22;8661;45.700;4.880;2024-03-22T13:01:52;32.80;47.20
17092;DHT22;8661;45.700;4.880;2024-03-22T13:04:19;32.70;47.70
17092;DHT22;8661;45.700;4.880;2024-03-22T13:06:46;33.10;47.30
17092;DHT22;8661;45.700;4.880;2024-03-22T13:09:12;33.40;47.00
17092;DHT22;8661;45.700;4.880;2024-03-22T13:11:39;33.60;47.10
17092;DHT22;8661;45.700;4.880;2024-03-22T13:14:06;33.40;46.80
17092;DHT22;8661;45.700;4.880;2024-03-22T13:16:33;33.50;47.70
17092;DHT22;8661;45.700;4.880;2024-03-22T13:19:00;33.60;47.20
17092;DHT22;8661;45.700;4.880;2024-03-22T13:21:27;33.50;47.10
17092;DHT22;8661;45.700;4.880;2024-03-22T13:23:53;33.20;47.40
17092;DHT22;8661;45.700;4.880;2024-03-22T13:26:21;33.00;46.80
17092;DHT22;8661;45.700;4.880;2024-03-22T13:28:47;32.80;46.90
17092;DHT22;8661;45.700;4.880;2024-03-22T13:31:15;32.80;46.40
17092;DHT22;8661;45.700;4.880;2024-03-22T13:33:41;33.00;46.20
17092;DHT22;8661;45.700;4.880;2024-03-22T13:36:09;33.00;46.80
17092;DHT22;8661;45.700;4.880;2024-03-22T13:38:35;32.90;46.60
17092;DHT22;8661;45.700;4.880;2024-03-22T13:41:03;32.70;45.80
17092;DHT22;8661;45.700;4.880;2024-03-22T13:43:29;32.30;47.10
17092;DHT22;8661;45.700;4.880;2024-03-22T13:45:56;32.20;47.20
17092;DHT22;8661;45.700;4.880;2024-03-22T13:48:24;32.30;47.00
17092;DHT22;8661;45.700;4.880;2024-03-22T13:50:52;32.00;47.70
17092;DHT22;8661;45.700;4.880;2024-03-22T13:53:22;31.90;48.00
17092;DHT22;8661;45.700;4.880;2024-03-22T13:55:49;31.70;47.80
17092;DHT22;8661;45.700;4.880;2024-03-22T13:58:15;31.80;48.40
17092;DHT22;8661;45.700;4.880;2024-03-22T14:00:42;32.00;47.60
17092;DHT22;8661;45.700;4.880;2024-03-22T14:03:08;32.00;47.10
17092;DHT22;8661;45.700;4.880;2024-03-22T14:05:35;31.90;46.80
17092;DHT22;8661;45.700;4.880;2024-03-22T14:08:02;31.70;47.00
17092;DHT22;8661;45.700;4.880;2024-03-22T14:10:30;31.50;47.00
17092;DHT22;8661;45.700;4.880;2024-03-22T14:12:57;31.40;47.90
17092;DHT22;8661;45.700;4.880;2024-03-22T14:15:27;31.40;48.60
17092;DHT22;8661;45.700;4.880;2024-03-22T14:17:58;31.60;47.90
17092;DHT22;8661;45.700;4.880;2024-03-22T14:20:25;31.60;47.00
17092;DHT22;8661;45.700;4.880;2024-03-22T14:22:51;31.40;47.00
17092;DHT22;8661;45.700;4.880;2024-03-22T14:25:18;31.30;46.90
17092;DHT22;8661;45.700;4.880;2024-03-22T14:27:46;31.30;46.50
17092;DHT22;8661;45.700;4.880;2024-03-22T14:30:13;31.30;48.10
17092;DHT22;8661;45.700;4.880;2024-03-22T14:32:40;31.50;47.90
17092;DHT22;8661;45.700;4.880;2024-03-22T14:35:08;31.60;46.50
17092;DHT22;8661;45.700;4.880;2024-03-22T14:37:34;31.50;47.30
17092;DHT22;8661;45.700;4.880;2024-03-22T14:40:01;31.40;46.50
17092;DHT22;8661;45.700;4.880;2024-03-22T14:42:30;31.60;46.60
17092;DHT22;8661;45.700;4.880;2024-03-22T14:44:58;31.60;46.10
17092;DHT22;8661;45.700;4.880;2024-03-22T14:47:24;31.30;46.90
17092;DHT22;8661;45.700;4.880;2024-03-22T14:49:51;31.00;46.60
17092;DHT22;8661;45.700;4.880;2024-03-22T14:52:17;31.00;47.40
17092;DHT22;8661;45.700;4.880;2024-03-22T14:54:44;31.20;47.00
17092;DHT22;8661;45.700;4.880;2024-03-22T14:57:11;30.90;46.10
17092;DHT22;8661;45.700;4.880;2024-03-22T14:59:38;30.80;47.40
17092;DHT22;8661;45.700;4.880;2024-03-22T15:02:05;30.80;47.10
17092;DHT22;8661;45.700;4.880;2024-03-22T15:04:32;30.80;47.00
17092;DHT22;8661;45.700;4.880;2024-03-22T15:06:58;30.80;47.10
17092;DHT22;8661;45.700;4.880;2024-03-22T15:09:25;31.00;46.70
17092;DHT22;8661;45.700;4.880;2024-03-22T15:11:51;30.60;45.90
17092;DHT22;8661;45.700;4.880;2024-03-22T15:14:20;30.30;46.50
17092;DHT22;8661;45.700;4.880;2024-03-22T15:16:49;30.00;46.80
17092;DHT22;8661;45.700;4.880;2024-03-22T15:19:25;29.60;47.50
17092;DHT22;8661;45.700;4.880;2024-03-22T15:21:57;29.40;47.30
17092;DHT22;8661;45.700;4.880;2024-03-22T15:24:24;28.90;46.80
17092;DHT22;8661;45.700;4.880;2024-03-22T15:26:50;29.10;47.00
17092;DHT22;8661;45.700;4.880;2024-03-22T15:29:17;29.80;46.80
17092;DHT22;8661;45.700;4.880;2024-03-22T15:31:43;30.50;45.60
17092;DHT22;8661;45.700;4.880;2024-03-22T15:34:10;31.00;44.50
17092;DHT22;8661;45.700;4.880;2024-03-22T15:36:38;32.10;44.00
17092;DHT22;8661;45.700;4.880;2024-03-22T15:39:05;32.90;43.00
17092;DHT22;8661;45.700;4.880;2024-03-22T15:41:33;32.90;43.00
17092;DHT22;8661;45.700;4.880;2024-03-22T15:44:01;31.60;44.00
17092;DHT22;8661;45.700;4.880;2024-03-22T15:46:27;30.20;46.10
17092;DHT22;8661;45.700;4.880;2024-03-22T15:48:54;29.50;47.40